Time;durP1;ratioP1;P1;durP2;ratioP2;P2;SDS_P1;SDS_P2;PMS_P1;PMS_P2;Temp;Humidity;BMP_temperature;BMP_pressure;BME280_temperature;BME280_humidity;BME280_pressure;Samples;Min_cycle;Max_cycle;Signal;HPM_P1;HPM_P2
2021/10/02 00:48:44;;;;;;;13.98;9.05;;;;;;;;;;10308944;28;20036;-52
2021/10/02 00:53:42;;;;;;;12.82;9.32;;;;;;;;;;10308809;28;20100;-52
2021/10/02 00:58:46;;;;;;;15.25;11.20;;;;;;;;;;10308517;28;20095;-56
2021/10/02 01:03:49;;;;;;;17.20;13.20;;;;;;;;;;10308321;28;20047;-53
2021/10/02 01:08:51;;;;;;;18.15;13.45;;;;;;;;;;10308335;28;20083;-55
2021/10/02 01:13:55;;;;;;;21.25;13.00;;;;;;;;;;10309355;28;20056;-54
2021/10/02 01:18:54;;;;;;;17.57;13.33;;;;;;;;;;10308440;28;20203;-54
2021/10/02 01:23:57;;;;;;;15.38;13.00;;;;;;;;;;10308160;28;20040;-54
2021/10/02 01:28:58;;;;;;;19.58;13.15;;;;;;;;;;10306814;28;20048;-52
2021/10/02 01:34:01;;;;;;;14.55;11.23;;;;;;;;;;10308345;28;20049;-54
2021/10/02 01:49:36;;;;;;;15.75;11.95;;;;;;;;;;10307279;28;20060;-55
2021/10/02 01:54:36;;;;;;;18.58;12.10;;;;;;;;;;10307355;28;20426;-55
2021/10/02 01:59:35;;;;;;;11.15;9.55;;;;;;;;;;10306720;28;20076;-55
2021/10/02 02:04:34;;;;;;;11.93;10.73;;;;;;;;;;10307574;28;20442;-55
2021/10/02 02:09:38;;;;;;;14.40;10.20;;;;;;;;;;10307677;28;20075;-52
2021/10/02 02:14:38;;;;;;;21.38;11.13;;;;;;;;;;10306997;28;20079;-55
2021/10/02 02:19:37;;;;;;;16.30;10.85;;;;;;;;;;10308432;28;20075;-55
2021/10/02 02:24:35;;;;;;;20.00;9.75;;;;;;;;;;10307775;28;20055;-55
2021/10/02 02:29:34;;;;;;;17.52;9.70;;;;;;;;;;10306857;28;20128;-55
2021/10/02 02:34:33;;;;;;;16.63;9.35;;;;;;;;;;10307366;28;20505;-54
2021/10/02 02:39:32;;;;;;;15.55;9.68;;;;;;;;;;10307075;28;20080;-55
2021/10/02 02:44:30;;;;;;;9.07;7.40;;;;;;;;;;10307132;28;20047;-55
2021/10/02 02:49:33;;;;;;;18.55;10.45;;;;;;;;;;10306658;28;20103;-54
2021/10/02 02:54:36;;;;;;;13.05;9.07;;;;;;;;;;10305652;28;20075;-55
2021/10/02 02:59:36;;;;;;;12.13;9.45;;;;;;;;;;10305324;28;20156;-56
2021/10/02 03:04:34;;;;;;;18.67;9.18;;;;;;;;;;10312300;28;20041;-54
2021/10/02 03:09:38;;;;;;;17.23;9.90;;;;;;;;;;10312914;28;20449;-54
2021/10/02 03:14:37;;;;;;;13.32;9.60;;;;;;;;;;10313007;28;20096;-53
2021/10/02 03:19:37;;;;;;;14.82;10.07;;;;;;;;;;10313044;28;20094;-55
2021/10/02 03:24:38;;;;;;;13.10;9.07;;;;;;;;;;10313018;28;20044;-54
2021/10/02 03:29:37;;;;;;;15.52;10.23;;;;;;;;;;10313732;28;20055;-54
2021/10/02 03:34:36;;;;;;;15.93;9.75;;;;;;;;;;10313461;28;20060;-55
2021/10/02 03:39:34;;;;;;;11.85;8.73;;;;;;;;;;10312774;28;20091;-49
2021/10/02 03:44:34;;;;;;;13.45;9.77;;;;;;;;;;10312008;28;20041;-52
2021/10/02 03:49:33;;;;;;;19.17;8.65;;;;;;;;;;10311777;28;20139;-51
2021/10/02 03:54:31;;;;;;;11.30;8.40;;;;;;;;;;10311679;28;20075;-52
2021/10/02 03:59:30;;;;;;;11.55;7.63;;;;;;;;;;10311367;28;20076;-54
2021/10/02 04:04:29;;;;;;;15.10;8.25;;;;;;;;;;10311686;28;20041;-47
2021/10/02 04:09:28;;;;;;;10.50;8.07;;;;;;;;;;10312186;28;20049;-53
2021/10/02 13:31:43;;;;;;;12.85;5.55;;;;;;;;;;10276070;28;20068;-53
2021/10/02 13:36:41;;;;;;;11.98;6.70;;;;;;;;;;10276924;28;20091;-53
2021/10/02 13:41:40;;;;;;;11.73;5.88;;;;;;;;;;10276739;28;20469;-56
2021/10/02 13:46:39;;;;;;;9.82;6.10;;;;;;;;;;10276283;28;20446;-54
2021/10/02 13:51:40;;;;;;;12.23;7.18;;;;;;;;;;10276757;28;20425;-54
2021/10/02 13:56:39;;;;;;;9.55;6.40;;;;;;;;;;10276587;28;20043;-55
2021/10/02 14:01:37;;;;;;;10.88;7.50;;;;;;;;;;10276319;28;20083;-52
2021/10/02 14:06:36;;;;;;;14.32;6.65;;;;;;;;;;10276230;28;20041;-53
2021/10/02 14:11:36;;;;;;;12.32;6.60;;;;;;;;;;10276173;28;20071;-54
2021/10/02 14:16:34;;;;;;;10.68;7.45;;;;;;;;;;10275891;28;20392;-53
2021/10/02 14:21:32;;;;;;;13.75;7.68;;;;;;;;;;10275790;28;20106;-55
2021/10/02 14:26:31;;;;;;;10.45;7.25;;;;;;;;;;10275865;28;20044;-54
2021/10/02 14:31:30;;;;;;;16.85;7.68;;;;;;;;;;10275203;28;20045;-53
2021/10/02 14:36:29;;;;;;;12.32;8.48;;;;;;;;;;10275416;28;20088;-55
2021/10/02 14:41:27;;;;;;;12.90;7.45;;;;;;;;;;10275563;28;20077;-56
2021/10/02 14:46:26;;;;;;;10.80;6.47;;;;;;;;;;10275260;28;20045;-53
2021/10/02 14:51:26;;;;;;;15.52;8.02;;;;;;;;;;10275087;28;20852;-54
2021/10/02 14:56:24;;;;;;;19.42;9.07;;;;;;;;;;10275110;28;20049;-53
2021/10/02 15:01:25;;;;;;;16.55;11.60;;;;;;;;;;10282290;28;20080;-52
2021/10/02 15:06:24;;;;;;;15.98;10.45;;;;;;;;;;10282628;28;20084;-54
2021/10/02 15:11:24;;;;;;;13.85;8.70;;;;;;;;;;10282627;28;20048;-55
2021/10/02 15:16:23;;;;;;;15.57;7.53;;;;;;;;;;10281650;28;20047;-52
2021/10/02 15:21:21;;;;;;;10.63;7.90;;;;;;;;;;10281877;28;20080;-55
2021/10/02 15:26:21;;;;;;;16.15;9.30;;;;;;;;;;10281764;28;20068;-52
2021/10/02 15:31:21;;;;;;;15.88;10.35;;;;;;;;;;10280943;28;20436;-55
2021/10/02 15:36:20;;;;;;;23.45;12.68;;;;;;;;;;10281466;28;20056;-53
2021/10/02 15:41:18;;;;;;;20.88;14.18;;;;;;;;;;10281551;28;20083;-54
2021/10/02 15:46:17;;;;;;;17.17;11.65;;;;;;;;;;10280911;28;20056;-56
2021/10/02 15:51:16;;;;;;;22.50;12.20;;;;;;;;;;10280785;28;20048;-55
2021/10/02 15:56:20;;;;;;;20.80;12.30;;;;;;;;;;10281137;28;20083;-55
2021/10/02 16:01:21;;;;;;;19.77;13.33;;;;;;;;;;10280563;28;20502;-55
2021/10/02 16:06:22;;;;;;;35.08;23.25;;;;;;;;;;10280100;28;20486;-54
2021/10/02 16:11:21;;;;;;;20.70;13.45;;;;;;;;;;10280267;28;20045;-52
2021/10/02 16:16:20;;;;;;;21.42;16.80;;;;;;;;;;10279882;28;20044;-55
2021/10/02 16:21:21;;;;;;;21.27;15.43;;;;;;;;;;10280106;28;20080;-56
2021/10/02 16:26:20;;;;;;;26.23;16.05;;;;;;;;;;10278638;28;20049;-53
2021/10/02 16:31:18;;;;;;;19.92;15.23;;;;;;;;;;10278972;28;20141;-54
2021/10/02 16:36:17;;;;;;;27.67;17.55;;;;;;;;;;10278251;28;20045;-55
2021/10/02 16:41:17;;;;;;;22.92;16.50;;;;;;;;;;10278634;28;20073;-51
2021/10/02 16:46:15;;;;;;;25.17;17.15;;;;;;;;;;10278377;28;20052;-55
2021/10/02 16:51:14;;;;;;;25.98;15.68;;;;;;;;;;10278527;28;20517;-53
2021/10/02 16:56:15;;;;;;;25.88;15.50;;;;;;;;;;10278457;28;20040;-53
2021/10/02 17:01:14;;;;;;;23.15;17.05;;;;;;;;;;10278180;28;20481;-54
2021/10/02 17:06:13;;;;;;;25.13;15.55;;;;;;;;;;10278510;28;20037;-54
2021/10/02 17:11:13;;;;;;;24.88;16.88;;;;;;;;;;10277363;28;20125;-54
2021/10/02 17:16:11;;;;;;;36.45;24.25;;;;;;;;;;10283785;28;20509;-55
2021/10/02 17:21:11;;;;;;;26.58;20.20;;;;;;;;;;10275246;28;20069;-54
2021/10/02 17:26:10;;;;;;;22.80;17.08;;;;;;;;;;10290964;28;20117;-58
2021/10/02 17:31:08;;;;;;;26.20;18.50;;;;;;;;;;10298211;28;20120;-59
2021/10/02 17:36:07;;;;;;;17.05;13.82;;;;;;;;;;10307637;28;20041;-56
2021/10/02 17:41:07;;;;;;;16.10;12.07;;;;;;;;;;10275466;28;20079;-58
2021/10/02 17:46:05;;;;;;;24.60;12.07;;;;;;;;;;10275858;28;20048;-59
2021/10/02 17:51:08;;;;;;;18.05;11.40;;;;;;;;;;10295887;28;20040;-60
2021/10/02 17:56:08;;;;;;;16.70;11.07;;;;;;;;;;10283910;28;20075;-59
2021/10/02 18:01:07;;;;;;;15.73;11.77;;;;;;;;;;10303167;28;20088;-58
2021/10/02 18:06:06;;;;;;;12.35;10.63;;;;;;;;;;10277815;28;20053;-59
2021/10/02 18:11:05;;;;;;;16.70;9.98;;;;;;;;;;10275274;28;20045;-59
2021/10/02 18:16:04;;;;;;;15.43;9.93;;;;;;;;;;10293955;28;20151;-59
2021/10/02 18:21:04;;;;;;;19.48;10.25;;;;;;;;;;10275317;28;20095;-59
2021/10/02 18:26:07;;;;;;;14.63;10.60;;;;;;;;;;10270260;28;20071;-58
2021/10/02 18:31:06;;;;;;;17.40;9.95;;;;;;;;;;10300639;28;20136;-59
2021/10/02 18:36:05;;;;;;;19.70;10.35;;;;;;;;;;10302537;28;20077;-59
2021/10/02 18:41:06;;;;;;;19.05;9.80;;;;;;;;;;10312222;28;20087;-58
2021/10/02 18:46:04;;;;;;;13.95;7.78;;;;;;;;;;10309996;28;20413;-60
2021/10/02 18:51:04;;;;;;;12.77;9.80;;;;;;;;;;10286618;28;20075;-59
2021/10/02 18:56:04;;;;;;;14.18;9.82;;;;;;;;;;10307427;28;20067;-59
2021/10/02 19:01:04;;;;;;;15.35;10.43;;;;;;;;;;10282730;28;20179;-60
2021/10/02 19:06:04;;;;;;;22.55;10.27;;;;;;;;;;10282470;28;20410;-60
2021/10/02 19:11:03;;;;;;;19.90;9.85;;;;;;;;;;10282793;28;20087;-60
2021/10/02 19:16:01;;;;;;;19.38;10.20;;;;;;;;;;10287172;28;20076;-59
2021/10/02 19:20:59;;;;;;;12.93;8.95;;;;;;;;;;10303946;28;20179;-60
2021/10/02 19:26:01;;;;;;;17.85;9.75;;;;;;;;;;10304195;28;20064;-60
2021/10/02 19:30:59;;;;;;;18.77;10.27;;;;;;;;;;10297228;28;20081;-58
2021/10/02 19:36:02;;;;;;;15.93;11.07;;;;;;;;;;10301687;28;20048;-58
2021/10/02 19:41:05;;;;;;;14.75;10.27;;;;;;;;;;10295538;28;20073;-58
2021/10/02 19:46:04;;;;;;;19.27;10.15;;;;;;;;;;10288164;28;20060;-59
2021/10/02 19:51:02;;;;;;;23.60;10.18;;;;;;;;;;10278002;28;20073;-59
2021/10/02 19:56:02;;;;;;;15.35;10.13;;;;;;;;;;10279984;28;20037;-59
2021/10/02 20:01:00;;;;;;;19.58;10.63;;;;;;;;;;10279799;28;20151;-59
2021/10/02 20:05:59;;;;;;;20.63;9.60;;;;;;;;;;10280090;28;20045;-59
2021/10/02 20:10:57;;;;;;;23.60;8.68;;;;;;;;;;10279719;28;20073;-59
2021/10/02 20:16:00;;;;;;;14.82;8.88;;;;;;;;;;10285291;28;20469;-58
2021/10/02 20:20:58;;;;;;;11.73;7.43;;;;;;;;;;10314917;28;20478;-58
2021/10/02 20:25:57;;;;;;;10.60;7.85;;;;;;;;;;10313781;28;20118;-60
2021/10/02 20:30:56;;;;;;;15.32;7.78;;;;;;;;;;10312255;28;20083;-60
2021/10/02 20:35:55;;;;;;;16.27;7.22;;;;;;;;;;10313908;28;20070;-60
2021/10/02 20:40:54;;;;;;;15.85;8.52;;;;;;;;;;10315623;28;20079;-60
2021/10/02 20:45:52;;;;;;;13.27;6.47;;;;;;;;;;10315333;28;20075;-60
2021/10/02 20:50:50;;;;;;;17.20;7.32;;;;;;;;;;10319618;28;20094;-60
2021/10/02 20:55:50;;;;;;;7.85;6.22;;;;;;;;;;10318370;28;20044;-60
2021/10/02 21:00:48;;;;;;;12.40;6.07;;;;;;;;;;10318466;28;20072;-60
2021/10/02 21:05:49;;;;;;;9.15;5.32;;;;;;;;;;10311967;28;20099;-60
2021/10/02 21:10:48;;;;;;;16.90;5.78;;;;;;;;;;10310143;28;20075;-61
2021/10/02 21:15:48;;;;;;;8.45;5.20;;;;;;;;;;10318258;28;20082;-60
2021/10/02 21:20:47;;;;;;;9.95;6.05;;;;;;;;;;10316457;28;20075;-58
2021/10/02 21:25:47;;;;;;;11.30;5.97;;;;;;;;;;10316943;28;20068;-58
2021/10/02 21:30:47;;;;;;;11.77;5.50;;;;;;;;;;10317115;28;20056;-60
2021/10/02 21:35:47;;;;;;;10.23;6.15;;;;;;;;;;10317332;28;20044;-60
2021/10/02 21:40:46;;;;;;;9.40;5.35;;;;;;;;;;10317516;28;20083;-60
2021/10/02 21:45:45;;;;;;;9.30;4.95;;;;;;;;;;10316679;28;20053;-60
2021/10/02 21:50:44;;;;;;;7.00;5.35;;;;;;;;;;10316706;28;20040;-58
2021/10/02 21:55:48;;;;;;;9.30;5.72;;;;;;;;;;10317076;28;20500;-58
2021/10/02 22:01:05;;;;;;;11.00;5.55;;;;;;;;;;10316570;28;20087;-58
2021/10/02 22:06:03;;;;;;;7.20;5.28;;;;;;;;;;10316004;28;20045;-58
2021/10/02 22:11:03;;;;;;;9.18;5.05;;;;;;;;;;10316881;28;20048;-58
2021/10/02 22:16:03;;;;;;;5.85;4.80;;;;;;;;;;10316992;28;20056;-58
2021/10/02 22:21:03;;;;;;;5.88;4.93;;;;;;;;;;10316760;28;20075;-59
2021/10/02 22:26:03;;;;;;;13.20;5.70;;;;;;;;;;10316973;28;20076;-59
2021/10/02 22:31:02;;;;;;;8.68;5.22;;;;;;;;;;10316349;28;20453;-59
2021/10/02 22:36:05;;;;;;;8.50;5.30;;;;;;;;;;10316507;28;20512;-59
2021/10/02 22:41:05;;;;;;;7.35;4.68;;;;;;;;;;10316228;28;20083;-59
2021/10/02 22:46:04;;;;;;;8.55;5.40;;;;;;;;;;10316553;28;20072;-59
2021/10/02 22:51:04;;;;;;;11.45;4.60;;;;;;;;;;10316338;28;20055;-58
2021/10/02 22:56:02;;;;;;;5.28;4.03;;;;;;;;;;10315896;28;20048;-58
2021/10/02 23:01:03;;;;;;;5.95;4.07;;;;;;;;;;10316264;28;20087;-59
2021/10/02 23:06:02;;;;;;;13.32;4.88;;;;;;;;;;10316136;28;20123;-59
2021/10/02 23:11:00;;;;;;;6.95;5.18;;;;;;;;;;10315783;28;20051;-58
2021/10/02 23:16:00;;;;;;;8.77;6.80;;;;;;;;;;10315808;28;20052;-59
2021/10/02 23:21:00;;;;;;;14.85;6.57;;;;;;;;;;10320553;28;20083;-54
2021/10/02 23:25:59;;;;;;;16.27;6.88;;;;;;;;;;10322467;28;20048;-51
2021/10/02 23:30:59;;;;;;;11.30;6.80;;;;;;;;;;10322431;28;20053;-54
2021/10/02 23:35:59;;;;;;;12.05;8.02;;;;;;;;;;10322356;28;20047;-50
2021/10/02 23:40:59;;;;;;;11.38;8.20;;;;;;;;;;10322261;28;20095;-51
2021/10/02 23:45:58;;;;;;;10.73;7.72;;;;;;;;;;10322161;28;20103;-50
2021/10/02 23:50:57;;;;;;;11.95;8.25;;;;;;;;;;10321982;28;20080;-53
2021/10/02 23:55:56;;;;;;;25.95;9.57;;;;;;;;;;10321551;28;20507;-54
